Farm Ridge, Illinois
Current Conditions -  °F | °C
As of 6:15 PM on Friday 21 Nov 2014 (Local Time) from KVYS Reporting Station
Broken Clouds Broken Clouds  
Wind Chill: 23°   Ceiling: 3900
Heat Index: 32°   Visibility: 10mi
Dew Point:   Wind: 10mph
Humidity: 38%   Direction: 160°SSE
Pressure: 30.29"   Gusts: NA
Location:  41.2419°N, 88.7998°W
Report Text: KVYS 220015Z AUTO 16009KT 10SM BKN039 00/M13 A3029 RMK AO2 T10021129
Loading
Personal Weather Stations






























Interactive Weather Map New forecast layout! Learn more

10-Day Weather Forecast

Advertisements
Track Severe Weather on mobile